Time;durP1;ratioP1;P1;durP2;ratioP2;P2;SDS_P1;SDS_P2;PMS_P1;PMS_P2;Temp;Humidity;BMP_temperature;BMP_pressure;BME280_temperature;BME280_humidity;BME280_pressure;Samples;Min_cycle;Max_cycle;Signal;HPM_P1;HPM_P2
2023/12/04 00:00:34;;;;;;;5.05;3.97;;;;;;;-1.40;62.62;100460.94;4422547;32;33895;-81
2023/12/04 00:03:03;;;;;;;5.45;4.15;;;;;;;-1.39;62.61;100460.16;4415757;32;34107;-78
2023/12/04 00:05:33;;;;;;;5.75;4.45;;;;;;;-1.54;63.00;100462.84;4416507;32;34109;-83
2023/12/04 00:08:02;;;;;;;6.32;5.20;;;;;;;-1.72;63.12;100463.72;4430305;32;33683;-78
2023/12/04 00:10:31;;;;;;;5.12;3.83;;;;;;;-1.65;63.15;100469.94;4420521;32;34519;-83
2023/12/04 00:13:00;;;;;;;6.25;4.70;;;;;;;-1.74;62.82;100462.75;4414772;32;33502;-81
2023/12/04 00:15:29;;;;;;;5.40;4.35;;;;;;;-1.73;63.03;100459.41;4414277;32;32985;-79
2023/12/04 00:17:58;;;;;;;4.70;3.40;;;;;;;-1.73;63.52;100459.41;4419538;32;34348;-79
2023/12/04 00:20:27;;;;;;;7.35;4.32;;;;;;;-1.88;63.25;100461.22;4419777;32;35224;-79
2023/12/04 00:22:57;;;;;;;8.15;5.62;;;;;;;-2.19;64.73;100464.78;4422212;32;33492;-80
2023/12/04 00:25:26;;;;;;;6.97;5.30;;;;;;;-1.82;63.57;100461.50;4430708;32;33484;-80
2023/12/04 00:27:55;;;;;;;8.63;5.15;;;;;;;-1.63;63.47;100472.59;4424542;32;34534;-82
2023/12/04 00:30:23;;;;;;;12.15;5.28;;;;;;;-1.63;63.03;100460.72;4430386;32;34772;-80
2023/12/04 00:33:11;;;;;;;6.50;4.90;;;;;;;-1.53;62.80;100460.34;4423794;32;35438;-79
2023/12/04 00:35:40;;;;;;;6.80;4.60;;;;;;;-1.54;62.61;100463.72;4423724;32;33261;-80
2023/12/04 00:38:10;;;;;;;6.32;3.78;;;;;;;-1.48;62.46;100465.66;4425443;32;33373;-80
2023/12/04 00:40:40;;;;;;;5.45;4.37;;;;;;;-1.42;62.27;100463.44;4416965;32;34783;-80
2023/12/04 00:43:09;;;;;;;5.43;4.50;;;;;;;-1.51;62.04;100468.06;4421151;32;34156;-82
2023/12/04 00:45:38;;;;;;;6.45;5.18;;;;;;;-1.56;62.32;100467.00;4416970;32;33821;-82
2023/12/04 00:48:06;;;;;;;6.25;4.30;;;;;;;-1.48;61.73;100458.03;4416675;32;33563;-78
2023/12/04 00:50:40;;;;;;;6.90;4.22;;;;;;;-1.46;61.75;100460.66;4427561;32;34658;-81
2023/12/04 00:53:11;;;;;;;7.32;5.35;;;;;;;-1.62;62.17;100459.03;4429537;32;34134;-80
2023/12/04 00:55:40;;;;;;;6.30;4.90;;;;;;;-1.61;62.14;100460.81;4420772;32;32749;-80
2023/12/04 00:58:08;;;;;;;7.87;5.05;;;;;;;-1.60;61.97;100460.00;4419393;32;33316;-82
2023/12/04 01:00:37;;;;;;;5.70;4.68;;;;;;;-1.61;62.02;100461.69;4426660;32;34523;-80
2023/12/04 01:03:06;;;;;;;5.28;3.92;;;;;;;-1.84;62.77;100462.22;4420922;32;34251;-80
2023/12/04 01:05:35;;;;;;;9.48;4.60;;;;;;;-1.88;62.75;100455.25;4425919;32;33144;-80
2023/12/04 01:08:04;;;;;;;5.80;4.60;;;;;;;-1.92;62.40;100454.22;4430318;32;34247;-80
2023/12/04 01:10:34;;;;;;;5.57;3.80;;;;;;;-1.91;62.81;100453.41;4422280;32;33961;-80
2023/12/04 01:13:03;;;;;;;7.50;4.82;;;;;;;-2.25;63.09;100456.81;4425244;32;33288;-82
2023/12/04 01:15:32;;;;;;;5.30;3.62;;;;;;;-1.94;62.92;100453.28;4427367;32;33969;-79
2023/12/04 01:18:01;;;;;;;4.25;3.70;;;;;;;-1.74;62.53;100461.88;4429735;32;34604;-80
2023/12/04 01:20:33;;;;;;;5.90;3.90;;;;;;;-1.94;63.11;100466.00;4425172;32;33505;-80
2023/12/04 01:23:01;;;;;;;;;;;;;;;-1.88;62.72;100468.84;4418702;32;33775;-78
2023/12/04 01:25:30;;;;;;;4.87;3.42;;;;;;;-2.20;63.64;100473.22;4428820;32;33799;-81
2023/12/04 01:28:00;;;;;;;5.45;4.25;;;;;;;-1.98;63.13;100476.78;4424181;32;34092;-79
2023/12/04 01:30:29;;;;;;;6.72;4.87;;;;;;;-1.78;62.35;100482.88;4422128;32;33997;-81
2023/12/04 01:32:59;;;;;;;4.75;4.28;;;;;;;-1.79;62.12;100482.03;4426021;32;33966;-79
2023/12/04 01:35:28;;;;;;;7.05;5.80;;;;;;;-1.82;62.09;100481.84;4428829;32;33741;-79
2023/12/04 01:37:58;;;;;;;8.35;5.75;;;;;;;-1.87;62.16;100485.84;4432276;32;33815;-81
2023/12/04 01:40:27;;;;;;;6.62;5.10;;;;;;;-1.90;62.38;100483.16;4429963;32;33710;-82
2023/12/04 01:42:55;;;;;;;5.50;4.47;;;;;;;-2.02;62.83;100482.53;4415660;32;33386;-79
2023/12/04 01:45:26;;;;;;;4.43;4.03;;;;;;;-2.51;63.79;100478.38;4425810;32;33080;-79
2023/12/04 01:47:55;;;;;;;5.25;4.10;;;;;;;-2.71;64.71;100474.78;4432379;32;36040;-80
2023/12/04 01:50:24;;;;;;;4.82;4.30;;;;;;;-2.26;63.75;100477.09;4426898;32;33389;-80
2023/12/04 01:52:54;;;;;;;6.37;4.45;;;;;;;-2.51;63.73;100485.13;4425387;32;34426;-80
2023/12/04 01:55:23;;;;;;;4.68;4.15;;;;;;;-2.36;63.45;100486.78;4418330;32;34368;-81
2023/12/04 01:57:53;;;;;;;9.52;6.50;;;;;;;-2.28;63.20;100487.19;4427594;32;33472;-79
2023/12/04 02:00:22;;;;;;;7.10;5.43;;;;;;;-2.30;63.29;100485.34;4433502;32;34032;-79
2023/12/04 02:02:52;;;;;;;5.03;4.50;;;;;;;-2.33;63.39;100487.75;4414802;32;33392;-79
2023/12/04 02:05:22;;;;;;;5.70;5.10;;;;;;;-2.37;63.63;100479.06;4421760;32;32710;-79
2023/12/04 02:07:51;;;;;;;5.65;4.75;;;;;;;-2.48;64.10;100477.66;4414521;32;34643;-81
2023/12/04 02:10:20;;;;;;;5.53;4.78;;;;;;;-2.64;64.17;100476.00;4420480;32;34427;-82
2023/12/04 02:12:49;;;;;;;9.02;5.78;;;;;;;-2.57;64.10;100465.34;4417332;32;33778;-82
2023/12/04 02:15:18;;;;;;;6.53;5.10;;;;;;;-2.42;63.47;100471.22;4414196;32;33872;-83
2023/12/04 02:17:47;;;;;;;6.22;4.80;;;;;;;-2.51;63.75;100474.94;4413817;32;34212;-79
2023/12/04 02:20:17;;;;;;;6.65;4.20;;;;;;;-2.33;63.20;100481.00;4413790;32;33876;-80
2023/12/04 02:22:46;;;;;;;5.72;3.90;;;;;;;-2.31;62.63;100483.63;4433510;32;34227;-81
2023/12/04 02:25:18;;;;;;;6.00;4.87;;;;;;;-2.47;63.37;100475.19;4419658;32;33138;-79
2023/12/04 02:28:06;;;;;;;11.57;4.62;;;;;;;-2.81;64.09;100480.19;4427703;32;33425;-79
2023/12/04 02:30:37;;;;;;;5.35;4.12;;;;;;;-2.77;63.98;100479.56;4426335;32;33991;-80
2023/12/04 02:33:06;;;;;;;;;;;;;;;-2.45;63.04;100476.16;4429876;32;33819;-79
2023/12/04 02:35:35;;;;;;;;;;;;;;;-2.69;63.56;100483.38;4429033;32;33350;-79
2023/12/04 02:38:03;;;;;;;;;;;;;;;-2.47;62.81;100475.19;4423542;32;33794;-81
2023/12/04 02:40:33;;;;;;;;;;;;;;;-2.38;62.13;100475.66;4425279;32;34388;-81
2023/12/04 02:43:02;;;;;;;;;;;;;;;-2.30;61.57;100472.66;4428893;32;34178;-81
2023/12/04 02:45:30;;;;;;;;;;;;;;;-2.64;62.51;100488.69;4432685;32;33523;-80
2023/12/04 02:47:59;;;;;;;;;;;;;;;-2.75;63.03;100495.75;4422476;32;34025;-80
2023/12/04 02:50:27;;;;;;;;;;;;;;;-2.77;63.04;100491.37;4427784;32;34762;-80
2023/12/04 02:52:56;;;;;;;;;;;;;;;-2.90;63.73;100489.84;4427985;32;34619;-78
2023/12/04 02:55:24;;;;;;;;;;;;;;;-2.93;63.89;100484.63;4422896;32;151641;-78
2023/12/04 02:57:54;;;;;;;;;;;;;;;-2.94;63.91;100485.41;4429705;32;35710;-80
2023/12/04 03:00:23;;;;;;;;;;;;;;;-2.73;62.60;100491.63;4414239;32;34965;-79
2023/12/04 03:02:51;;;;;;;;;;;;;;;-2.66;62.26;100491.16;4424386;32;33667;-79
2023/12/04 03:05:20;;;;;;;;;;;;;;;-2.79;62.87;100486.22;4420092;32;32890;-79
2023/12/04 03:07:50;;;;;;;;;;;;;;;-2.91;63.18;100488.97;4422340;32;34236;-80
2023/12/04 03:10:19;;;;;;;;;;;;;;;-2.84;63.21;100495.25;4423709;32;34081;-81
2023/12/04 03:12:47;;;;;;;;;;;;;;;-2.78;62.82;100495.56;4421827;32;33776;-79
2023/12/04 03:15:17;;;;;;;;;;;;;;;-2.96;63.06;100495.47;4426433;32;32814;-80
2023/12/04 03:17:46;;;;;;;;;;;;;;;-2.82;63.00;100496.22;4419808;32;33937;-78
2023/12/04 03:20:14;;;;;;;;;;;;;;;-2.87;62.74;100495.97;4424356;32;34391;-80
2023/12/04 03:22:42;;;;;;;;;;;;;;;-2.64;62.37;100491.22;4414946;32;33115;-79
2023/12/04 03:25:11;;;;;;;;;;;;;;;-2.60;62.11;100493.16;4414314;32;32607;-78
2023/12/04 03:27:40;;;;;;;;;;;;;;;-2.88;62.47;100495.88;4421696;32;33497;-82
2023/12/04 03:30:08;;;;;;;;;;;;;;;-2.70;62.08;100504.50;4430632;32;34899;-81
2023/12/04 03:32:38;;;;;;;;;;;;;;;-2.78;62.29;100508.28;4426532;32;34720;-81
2023/12/04 03:35:07;;;;;;;;;;;;;;;-2.80;62.37;100512.41;4424189;32;33383;-79
2023/12/04 03:37:35;;;;;;;;;;;;;;;-2.74;62.33;100519.47;4428119;32;33783;-79
2023/12/04 03:40:04;;;;;;;;;;;;;;;-2.95;62.34;100511.56;4433608;32;34259;-79
2023/12/04 03:42:33;;;;;;;;;;;;;;;-2.75;62.62;100508.47;4427992;32;34356;-79
2023/12/04 03:45:02;;;;;;;;;;;;;;;-2.60;61.75;100504.19;4415109;32;33874;-77
2023/12/04 03:47:31;;;;;;;;;;;;;;;-2.83;62.76;100505.50;4429135;32;32372;-78
2023/12/04 03:50:01;;;;;;;;;;;;;;;-2.96;63.12;100508.16;4428380;32;34185;-80
2023/12/04 03:52:29;;;;;;;;;;;;;;;-3.08;62.84;100504.97;4430066;32;34478;-78
2023/12/04 03:54:58;;;;;;;;;;;;;;;-2.94;62.63;100498.97;4427635;32;33234;-80
2023/12/04 03:57:26;;;;;;;;;;;;;;;-2.84;62.44;100500.34;4430347;32;34181;-78
2023/12/04 03:59:55;;;;;;;;;;;;;;;-2.75;62.35;100503.38;4422202;32;35119;-82
2023/12/04 04:02:23;;;;;;;;;;;;;;;-3.06;63.32;100498.31;4433440;32;34540;-80
2023/12/04 04:04:52;;;;;;;;;;;;;;;-2.97;62.95;100486.12;4425276;32;33736;-80
2023/12/04 04:07:22;;;;;;;;;;;;;;;-3.05;63.54;100490.75;4428418;32;34236;-79
2023/12/04 04:09:50;;;;;;;;;;;;;;;-2.94;62.81;100487.97;4423590;32;34710;-79
2023/12/04 04:12:19;;;;;;;;;;;;;;;-2.91;63.04;100483.03;4421447;32;33809;-78
2023/12/04 04:14:48;;;;;;;;;;;;;;;-2.70;62.75;100479.09;4423214;32;34096;-78
2023/12/04 04:17:16;;;;;;;;;;;;;;;-2.72;62.52;100480.69;4421841;32;34089;-79
2023/12/04 04:19:45;;;;;;;;;;;;;;;-2.85;62.82;100483.34;4416780;32;34162;-80
2023/12/04 04:22:13;;;;;;;;;;;;;;;-2.81;63.04;100480.19;4428175;32;34808;-80
2023/12/04 04:24:43;;;;;;;;;;;;;;;-3.13;64.12;100486.09;4428538;32;32766;-81
2023/12/04 04:27:11;;;;;;;;;;;;;;;-2.86;62.76;100494.31;4422992;32;33647;-80
2023/12/04 04:29:40;;;;;;;;;;;;;;;-2.94;62.74;100500.66;4427707;32;34281;-82
2023/12/04 04:32:09;;;;;;;;;;;;;;;-2.94;63.21;100493.03;4420829;32;32967;-80
2023/12/04 04:34:41;;;;;;;;;;;;;;;-2.77;62.34;100488.84;4422097;32;31905;-78
2023/12/04 04:37:09;;;;;;;;;;;;;;;-2.87;62.68;100495.97;4426528;32;33513;-81
2023/12/04 04:39:38;;;;;;;;;;;;;;;-2.71;61.75;100500.19;4429463;32;34371;-79
2023/12/04 04:42:08;;;;;;;;;;;;;;;-2.74;61.59;100497.50;4425709;32;33471;-79
2023/12/04 04:44:36;;;;;;;;;;;;;;;-2.96;62.60;100492.94;4420245;32;32849;-82
2023/12/04 04:47:05;;;;;;;;;;;;;;;-2.92;62.18;100499.94;4426607;32;33721;-78
2023/12/04 04:49:33;;;;;;;;;;;;;;;-2.82;62.02;100498.75;4427647;32;33728;-78
2023/12/04 04:52:02;;;;;;;;;;;;;;;-2.88;62.35;100498.41;4418130;32;33585;-78
2023/12/04 04:54:32;;;;;;;;;;;;;;;-2.89;62.47;100497.56;4430936;32;33975;-79
2023/12/04 04:57:00;;;;;;;;;;;;;;;-2.80;62.14;100497.19;4434137;32;34749;-80
2023/12/04 04:59:31;;;;;;;;;;;;;;;-3.10;63.15;100507.41;4428689;32;34335;-79
2023/12/04 05:02:00;;;;;;;;;;;;;;;-2.84;62.10;100508.81;4418485;32;34283;-79
2023/12/04 05:04:29;;;;;;;;;;;;;;;-2.85;62.11;100516.34;4416638;32;33631;-80
2023/12/04 05:06:57;;;;;;;;;;;;;;;-2.85;62.17;100513.81;4421081;32;34162;-79
2023/12/04 05:09:26;;;;;;;;;;;;;;;-2.94;62.72;100509.13;4415296;32;35427;-83
2023/12/04 05:11:55;;;;;;;;;;;;;;;-2.88;62.75;100509.44;4424333;32;34463;-80
2023/12/04 05:14:23;;;;;;;;;;;;;;;-2.82;62.69;100504.72;4422775;32;33320;-80
2023/12/04 05:16:57;;;;;;;;;;;;;;;-2.95;63.29;100509.91;4422458;32;34948;-82
2023/12/04 05:19:25;;;;;;;;;;;;;;;-2.86;63.40;100507.00;4415307;32;34200;-81
2023/12/04 05:21:54;;;;;;;;;;;;;;;-2.90;63.31;100510.16;4415780;32;33908;-80
2023/12/04 05:24:22;;;;;;;;;;;;;;;-2.69;63.37;100505.34;4421100;32;33878;-81
2023/12/04 05:26:51;;;;;;;;;;;;;;;-2.77;63.32;100507.50;4415829;32;34609;-81
2023/12/04 05:29:19;;;;;;;;;;;;;;;-3.05;63.33;100500.91;4425834;32;33878;-83
2023/12/04 05:31:48;;;;;;;;;;;;;;;-2.97;63.45;100503.91;4420320;32;33786;-80
2023/12/04 05:34:17;;;;;;;;;;;;;;;-2.67;62.33;100499.56;4422585;32;33539;-81
2023/12/04 05:36:46;;;;;;;;;;;;;;;-2.77;62.07;100499.88;4424709;32;33891;-80
2023/12/04 05:39:15;;;;;;;;;;;;;;;-2.69;61.57;100502.81;4436071;32;33910;-83
2023/12/04 05:41:43;;;;;;;;;;;;;;;-2.77;61.27;100504.97;4423027;32;34132;-81
2023/12/04 05:44:12;;;;;;;;;;;;;;;-2.73;60.79;100504.34;4426343;32;33362;-81
2023/12/04 05:46:40;;;;;;;;;;;;;;;-2.95;61.22;100507.38;4417504;32;32160;-82
2023/12/04 05:49:10;;;;;;;;;;;;;;;-2.85;60.63;100504.56;4434218;32;33875;-80
2023/12/04 05:51:40;;;;;;;;;;;;;;;-3.12;61.60;100511.53;4425529;32;35181;-80
2023/12/04 05:54:09;;;;;;;;;;;;;;;-3.26;62.07;100508.25;4421788;32;33657;-83
2023/12/04 05:56:37;;;;;;;;;;;;;;;-3.39;62.52;100507.47;4426956;32;34512;-81
2023/12/04 05:59:06;;;;;;;;;;;;;;;-3.11;61.80;100497.19;4428350;32;33878;-82
2023/12/04 06:01:34;;;;;;;;;;;;;;;-3.10;61.79;100509.94;4430184;32;34105;-81
2023/12/04 06:04:03;;;;;;;;;;;;;;;-3.23;62.29;100520.25;4423466;32;33013;-83
2023/12/04 06:06:31;;;;;;;;;;;;;;;-3.09;62.09;100514.25;4414614;32;34122;-83
2023/12/04 06:09:01;;;;;;;;;;;;;;;-3.21;62.37;100516.13;4418192;32;33953;-81
2023/12/04 06:11:30;;;;;;;;;;;;;;;-3.09;62.05;100505.78;4429989;32;35255;-82
2023/12/04 06:13:58;;;;;;;;;;;;;;;-3.21;62.23;100508.50;4415883;32;33066;-81
2023/12/04 06:16:27;;;;;;;;;;;;;;;-3.11;62.65;100507.34;4424848;32;34921;-82
2023/12/04 06:18:55;;;;;;;;;;;;;;;-3.10;62.71;100516.69;4417533;32;34244;-84
2023/12/04 06:21:24;;;;;;;;;;;;;;;-2.97;62.18;100513.16;4423687;32;33760;-81
2023/12/04 06:23:52;;;;;;;;;;;;;;;-2.93;61.66;100522.69;4434088;32;33070;-81
2023/12/04 06:26:23;;;;;;;;;;;;;;;-3.11;62.67;100514.97;4417099;32;33345;-80
2023/12/04 06:28:51;;;;;;;;;;;;;;;-3.21;62.80;100523.75;4420393;32;33458;-82
2023/12/04 06:31:20;;;;;;;;;;;;;;;-3.17;62.29;100530.72;4417751;32;33585;-84
2023/12/04 06:33:49;;;;;;;;;;;;;;;-2.98;62.05;100522.44;4424917;32;31559;-83
2023/12/04 06:36:18;;;;;;;;;;;;;;;-3.01;62.06;100522.28;4421733;32;34049;-82
2023/12/04 06:38:46;;;;;;;;;;;;;;;-3.01;62.51;100522.28;4428557;32;33692;-82
2023/12/04 06:41:16;;;;;;;;;;;;;;;-2.97;62.18;100525.84;4418308;32;34974;-81
2023/12/04 06:43:46;;;;;;;;;;;;;;;-3.16;62.38;100527.41;4430768;32;33040;-81
2023/12/04 06:46:19;;;;;;;;;;;;;;;-3.07;62.61;100535.53;4426413;32;34082;-83
2023/12/04 06:48:48;;;;;;;;;;;;;;;-3.17;63.22;100538.31;4426479;32;34775;-80
2023/12/04 06:51:16;;;;;;;;;;;;;;;-2.92;62.31;100542.19;4420493;32;33045;-79
2023/12/04 06:53:45;;;;;;;;;;;;;;;-3.02;62.83;100540.81;4418845;32;33078;-83
2023/12/04 06:56:13;;;;;;;;;;;;;;;-3.04;62.79;100544.97;4429121;32;34698;-81
2023/12/04 06:58:46;;;;;;;;;;;;;;;-3.27;63.72;100546.22;4424494;32;33954;-79
2023/12/04 07:01:14;;;;;;;;;;;;;;;-3.08;62.86;100543.03;4420965;32;33988;-83
2023/12/04 07:03:43;;;;;;;;;;;;;;;-3.19;63.67;100544.09;4420160;32;33506;-83
2023/12/04 07:06:12;;;;;;;;;;;;;;;-3.03;63.31;100542.50;4426195;32;34796;-82
2023/12/04 07:08:40;;;;;;;;;;;;;;;-3.17;63.99;100545.06;4419781;32;33653;-80
2023/12/04 07:11:09;;;;;;;;;;;;;;;-3.07;63.78;100547.31;4422138;32;33091;-80
2023/12/04 07:13:38;;;;;;;;;;;;;;;-3.04;64.21;100553.44;4420548;32;34013;-82
2023/12/04 07:16:08;;;;;;;;;;;;;;;-2.91;64.10;100552.44;4413420;32;33653;-80
2023/12/04 07:18:56;;;;;;;;;;;;;;;-2.70;63.47;100541.72;4422725;32;34505;-80
2023/12/04 07:21:26;;;;;;;;;;;;;;;-2.52;63.25;100549.44;4412580;32;34701;-80
2023/12/04 07:23:54;;;;;;;;;;;;;;;-2.43;62.55;100545.72;4419806;32;32826;-83
2023/12/04 07:26:22;;;;;;;;;;;;;;;-2.63;63.39;100546.34;4429517;32;33521;-80
2023/12/04 07:28:51;;;;;;;;;;;;;;;-2.49;63.21;100554.66;4421884;32;33921;-80
2023/12/04 07:31:22;;;;;;;;;;;;;;;-2.64;63.58;100547.09;4428006;32;34691;-80
2023/12/04 07:33:51;;;;;;;;;;;;;;;-2.74;64.43;100542.34;4423972;32;32760;-81
2023/12/04 07:36:19;;;;;;;;;;;;;;;-2.47;63.61;100545.47;4424234;32;34191;-83
2023/12/04 07:38:49;;;;;;;;;;;;;;;-2.41;63.98;100540.72;4417428;32;34298;-80
2023/12/04 07:41:18;;;;;;;;;;;;;;;-2.09;63.38;100532.19;4420449;32;34269;-83
2023/12/04 07:43:46;;;;;;;;;;;;;;;-2.06;63.14;100544.19;4427166;32;33160;-81
2023/12/04 07:46:15;;;;;;;;;;;;;;;-2.17;63.87;100547.06;4423216;32;34059;-84
2023/12/04 07:48:46;;;;;;;;;;;;;;;-1.89;63.27;100550.13;4418883;32;33968;-83
2023/12/04 07:51:14;;;;;;;;;;;;;;;-1.77;63.16;100555.84;4426779;32;33548;-83
2023/12/04 07:53:43;;;;;;;;;;;;;;;-1.76;63.19;100558.47;4418444;32;33789;-81
2023/12/04 07:56:12;;;;;;;;;;;;;;;-1.68;63.80;100552.91;4419258;32;33606;-81
2023/12/04 07:58:41;;;;;;;;;;;;;;;-1.44;63.20;100548.13;4422984;32;34822;-82
2023/12/04 08:01:09;;;;;;;;;;;;;;;-1.49;63.28;100539.41;4424497;32;34291;-84
2023/12/04 08:03:38;;;;;;;;;;;;;;;-1.34;62.74;100543.56;4431003;32;32493;-83
2023/12/04 08:06:08;;;;;;;;;;;;;;;-1.40;63.34;100543.28;4430112;32;34029;-83
2023/12/04 08:08:37;;;;;;;;;;;;;;;-1.35;63.25;100549.47;4418317;32;36841;-80
2023/12/04 08:11:05;;;;;;;;;;;;;;;-1.18;63.07;100544.31;4416824;32;33506;-83
2023/12/04 08:13:34;;;;;;;;;;;;;;;-1.13;63.15;100553.91;4423108;32;33104;-81
2023/12/04 08:16:02;;;;;;;;;;;;;;;-1.12;63.10;100554.78;4415935;32;34205;-82
2023/12/04 08:18:35;;;;;;;;;;;;;;;-0.95;62.94;100558.97;4415649;32;34686;-81
2023/12/04 08:21:04;;;;;;;;;;;;;;;-0.98;63.18;100558.84;4413954;32;34575;-83
2023/12/04 08:23:34;;;;;;;;;;;;;;;-0.82;62.89;100560.44;4415573;32;33392;-84
2023/12/04 08:26:02;;;;;;;;;;;;;;;-0.69;62.74;100560.19;4419590;32;34116;-82
2023/12/04 08:28:31;;;;;;;;;;;;;;;-0.61;63.04;100563.09;4417420;32;34237;-85
2023/12/04 08:31:00;;;;;;;;;;;;;;;-0.96;64.17;100559.78;4424629;32;34010;-82
2023/12/04 08:33:28;;;;;;;;;;;;;;;-0.97;64.55;100555.47;4423678;32;32672;-81
2023/12/04 08:35:57;;;;;;;;;;;;;;;-0.69;64.68;100559.31;4426753;32;34691;-81
2023/12/04 08:38:26;;;;;;;;;;;;;;;-0.44;63.88;100558.75;4416192;32;34386;-80
2023/12/04 08:40:56;;;;;;;;;;;;;;;-0.54;64.08;100562.56;4415921;32;34371;-83
2023/12/04 08:43:24;;;;;;;;;;;;;;;-0.35;64.05;100551.53;4415609;32;32999;-84
2023/12/04 08:45:53;;;;;;;;;;;;;;;-0.12;63.55;100552.53;4421339;32;33369;-83
2023/12/04 08:48:21;;;;;;;;;;;;;;;-0.13;63.83;100557.56;4425964;32;33936;-83
2023/12/04 08:50:50;;;;;;;;;;;;;;;0.05;63.14;100554.94;4415882;32;34789;-81
2023/12/04 08:53:18;;;;;;;;;;;;;;;-0.13;63.99;100555.87;4418312;32;32711;-82
2023/12/04 08:55:47;;;;;;;;;;;;;;;0.10;63.32;100558.56;4433876;32;33780;-84
2023/12/04 08:58:19;;;;;;;;;;;;;;;0.14;62.90;100555.31;4436417;32;33736;-84
2023/12/04 09:00:48;;;;;;;;;;;;;;;0.28;62.44;100548.25;4415613;32;34069;-82
2023/12/04 09:03:17;;;;;;;;;;;;;;;0.28;62.10;100554.22;4415751;32;32863;-81
2023/12/04 09:05:56;;;;;;;;;;;;;;;0.32;61.77;100561.22;4420582;32;33807;-81
2023/12/04 09:08:26;;;;;;;;;;;;;;;0.39;60.93;100553.00;4430149;32;34213;-83
2023/12/04 09:11:05;;;;;;;;;;;;;;;0.24;61.12;100561.69;4421256;32;33821;-83
2023/12/04 09:13:38;;;;;;;;;;;;;;;0.49;60.64;100555.94;4425583;32;32384;-82
2023/12/04 09:16:08;;;;;;;;;;;;;;;0.38;61.02;100551.25;4431042;32;33536;-80
2023/12/04 09:18:39;;;;;;;;;;;;;;;0.44;60.59;100552.34;4430911;32;33758;-80
2023/12/04 09:21:09;;;;;;;;;;;;;;;0.49;59.45;100548.28;4425133;32;34731;-79
2023/12/04 09:23:37;;;;;;;;;;;;;;;0.62;58.25;100553.06;4418379;32;32971;-81
2023/12/04 09:26:05;;;;;;;;;;;;;;;0.57;57.87;100550.34;4432592;32;34110;-80
2023/12/04 09:28:34;;;;;;;;;;;;;;;0.77;57.65;100546.03;4419025;32;33344;-78
2023/12/04 09:31:04;;;;;;;;;;;;;;;0.64;58.08;100543.81;4420713;32;33693;-82
2023/12/04 09:33:33;;;;;;;;;;;;;;;0.82;57.66;100539.44;4428325;32;35010;-83
2023/12/04 09:36:02;;;;;;;;;;;;;;;1.00;57.20;100534.16;4431121;32;34559;-81
2023/12/04 09:38:30;;;;;;;;;;;;;;;1.00;56.10;100526.50;4429882;32;34753;-81
2023/12/04 09:41:01;;;;;;;;;;;;;;;0.96;56.90;100524.63;4427001;32;34533;-82
2023/12/04 09:43:30;;;;;;;;;;;;;;;0.90;57.17;100521.84;4420129;32;34152;-79
2023/12/04 09:45:59;;;;;;;;;;;;;;;1.10;57.16;100516.62;4415274;32;34924;-79
2023/12/04 09:48:29;;;;;;;;;;;;;;;0.92;58.64;100515.13;4415330;32;33694;-82
2023/12/04 09:51:01;;;;;;;;;;;;;;;1.08;58.59;100511.47;4415172;32;33372;-81
2023/12/04 09:53:29;;;;;;;;;;;;;;;1.06;58.31;100511.41;4424280;32;33671;-81
2023/12/04 09:55:58;;;;;;;;;;;;;;;1.11;58.03;100506.47;4433277;32;34789;-79
2023/12/04 09:58:28;;;;;;;;;;;;;;;1.24;58.26;100501.00;4430563;32;33804;-82
2023/12/04 10:00:56;;;;;;;;;;;;;;;1.18;57.75;100495.66;4431154;32;33895;-81
2023/12/04 10:03:25;;;;;;;;;;;;;;;1.38;57.38;100486.19;4430576;32;33504;-81
2023/12/04 10:05:55;;;;;;;;;;;;;;;1.35;57.62;100497.97;4436418;32;34537;-82
2023/12/04 10:08:23;;;;;;;;;;;;;;;1.40;57.98;100486.22;4430347;32;33979;-82
2023/12/04 10:10:52;;;;;;;;;;;;;;;1.56;58.08;100478.31;4430770;32;33858;-81
2023/12/04 10:13:20;;;;;;;;;;;;;;;1.53;58.86;100483.31;4418774;32;33426;-80
2023/12/04 10:16:09;;;;;;;;;;;;;;;1.41;58.93;100482.88;4415315;32;34499;-83
2023/12/04 10:18:37;;;;;;;;;;;;;;;1.42;58.87;100471.81;4420686;32;34397;-82
2023/12/04 10:21:08;;;;;;;;;;;;;;;1.42;58.78;100466.69;4414843;32;34330;-80
2023/12/04 10:23:44;;;;;;;;;;;;;;;1.61;58.82;100458.88;4415120;32;33868;-81
2023/12/04 10:26:15;;;;;;;;;;;;;;;1.68;58.66;100460.81;4415138;32;33909;-82
2023/12/04 10:28:59;;;;;;;;;;;;;;;1.62;58.72;100454.63;4420669;32;34197;-81
2023/12/04 10:31:27;;;;;;;;;;;;;;;1.83;57.92;100449.38;4420506;32;34292;-83
2023/12/04 10:33:56;;;;;;;;;;;;;;;1.89;57.51;100444.50;4426567;32;32957;-81
2023/12/04 10:36:26;;;;;;;;;;;;;;;2.05;56.42;100439.03;4430755;32;34907;-80
2023/12/04 10:38:59;;;;;;;;;;;;;;;1.89;56.30;100435.12;4430494;32;34988;-81
2023/12/04 10:41:28;;;;;;;;;;;;;;;1.90;56.26;100435.97;4435902;32;34018;-83
2023/12/04 10:43:56;;;;;;;;;;;;;;;1.93;56.72;100433.53;4430320;32;33375;-80
2023/12/04 10:46:38;;;;;;;;;;;;;;;2.21;56.16;100432.75;4430555;32;34593;-83
2023/12/04 10:49:06;;;;;;;;;;;;;;;1.95;56.54;100428.47;4429794;32;33992;-79
2023/12/04 10:51:38;;;;;;;;;;;;;;;2.07;55.92;100426.31;4429958;32;34047;-81
2023/12/04 10:54:07;;;;;;;;;;;;;;;2.09;55.14;100420.41;4427480;32;33145;-79
2023/12/04 10:56:37;;;;;;;;;;;;;;;2.00;56.13;100420.09;4414675;32;34092;-82
2023/12/04 10:59:07;;;;;;;;;;;;;;;1.86;56.62;100414.56;4414723;32;34059;-83
2023/12/04 11:01:36;;;;;;;;;;;;;;;1.95;56.47;100411.41;4414576;32;33920;-82
2023/12/04 11:04:06;;;;;;;;;;;;;;;2.17;55.69;100412.97;4420094;32;32776;-80
2023/12/04 11:06:37;;;;;;;;;;;;;;;2.07;55.59;100408.41;4414890;32;34850;-80
2023/12/04 11:09:06;;;;;;;;;;;;;;;2.20;56.12;100405.44;4414766;32;33061;-83
2023/12/04 11:11:35;;;;;;;;;;;;;;;2.35;55.54;100400.78;4414692;32;34052;-80
2023/12/04 11:14:05;;;;;;;;;;;;;;;2.06;55.02;100401.56;4414384;32;33326;-80
2023/12/04 11:16:36;;;;;;;;;;;;;;;2.39;54.51;100404.28;4420054;32;34644;-80
2023/12/04 11:19:07;;;;;;;;;;;;;;;2.36;54.92;100399.09;4400682;32;34125;-80
2023/12/04 11:21:38;;;;;;;;;;;;;;;2.22;54.56;100393.53;4414710;32;33807;-80
2023/12/04 11:24:07;;;;;;;;;;;;;;;2.45;54.74;100391.69;4399900;32;33614;-80
2023/12/04 11:26:35;;;;;;;;;;;;;;;2.30;55.65;100391.22;4420063;32;34363;-81
2023/12/04 11:29:04;;;;;;;;;;;;;;;2.30;55.72;100384.41;4414115;32;34065;-81
2023/12/04 11:31:33;;;;;;;;;;;;;;;2.37;55.04;100380.34;4414089;32;33813;-80
2023/12/04 11:34:02;;;;;;;;;;;;;;;2.23;55.35;100377.34;4413867;32;33506;-83
2023/12/04 11:36:30;;;;;;;;;;;;;;;2.22;56.27;100373.03;4415558;32;33716;-80
2023/12/04 11:39:00;;;;;;;;;;;;;;;2.35;55.76;100379.44;4419350;32;33871;-81
2023/12/04 11:41:32;;;;;;;;;;;;;;;2.09;55.85;100371.78;4413934;32;33673;-83
2023/12/04 11:44:00;;;;;;;;;;;;;;;2.27;55.35;100370.62;4425360;32;32825;-83
2023/12/04 11:46:30;;;;;;;;;;;;;;;2.19;56.21;100372.09;4429343;32;34507;-83
2023/12/04 11:49:22;;;;;;;;;;;;;;;2.22;56.24;100374.72;4420704;32;32970;-80
2023/12/04 11:51:52;;;;;;;;;;;;;;;2.37;55.96;100370.13;4435000;32;34329;-79
2023/12/04 11:54:24;;;;;;;;;;;;;;;2.59;55.58;100369.06;4420446;32;33065;-80
2023/12/04 11:56:57;;;;;;;;;;;;;;;2.69;55.46;100357.41;4413783;32;34170;-80
2023/12/04 11:59:25;;;;;;;;;;;;;;;2.77;55.13;100359.34;4413882;32;33513;-79
2023/12/04 12:01:55;;;;;;;;;;;;;;;2.83;54.78;100345.84;4419374;32;34188;-82
2023/12/04 12:04:23;;;;;;;;;;;;;;;2.68;55.26;100343.72;4419824;32;33001;-79
2023/12/04 12:06:52;;;;;;;;;;;;;;;2.56;55.82;100343.34;4430088;32;33850;-81
2023/12/04 12:09:22;;;;;;;;;;;;;;;2.86;55.29;100345.94;4431006;32;34413;-84
2023/12/04 12:11:51;;;;;;;;;;;;;;;2.81;55.42;100332.13;4432934;32;32854;-80
2023/12/04 12:14:21;;;;;;;;;;;;;;;2.54;55.98;100321.97;4437016;32;32636;-80
2023/12/04 12:16:49;;;;;;;;;;;;;;;2.37;55.83;100308.66;4431419;32;34653;-80
2023/12/04 12:19:20;;;;;;;;;;;;;;;2.41;55.67;100307.03;4431172;32;33704;-80
2023/12/04 12:21:49;;;;;;;;;;;;;;;2.30;56.28;100301.63;4431517;32;33630;-81
2023/12/04 12:24:18;;;;;;;;;;;;;;;2.46;56.46;100293.53;4424681;32;33767;-83
2023/12/04 12:26:48;;;;;;;;;;;;;;;2.70;55.52;100295.06;4415887;32;33320;-82
2023/12/04 12:29:17;;;;;;;;;;;;;;;2.74;55.55;100296.91;4416605;32;35206;-84
2023/12/04 12:31:47;;;;;;;;;;;;;;;2.84;55.51;100295.47;4416405;32;33620;-82
2023/12/04 12:34:15;;;;;;;;;;;;;;;2.82;55.36;100289.44;4427404;32;34012;-82